createdAt,value
2022-08-11T00:02:34.440Z,79.80
2022-08-11T00:05:06.350Z,80.80
2022-08-11T00:07:35.220Z,81.10
2022-08-11T00:10:02.954Z,81.40
2022-08-11T00:12:30.850Z,81.80
2022-08-11T00:15:01.167Z,81.90
2022-08-11T00:17:32.872Z,81.70
2022-08-11T00:20:13.697Z,82.10
2022-08-11T00:22:46.370Z,81.90
2022-08-11T00:25:15.921Z,81.70
2022-08-11T00:27:43.671Z,81.70
2022-08-11T00:30:13.774Z,81.30
2022-08-11T00:32:55.075Z,81.20
2022-08-11T00:35:51.170Z,81.90
2022-08-11T00:38:16.028Z,81.70
2022-08-11T00:40:50.780Z,81.70
2022-08-11T00:43:31.227Z,81.60
2022-08-11T00:46:11.417Z,81.90
2022-08-11T00:48:55.264Z,82.00
2022-08-11T00:52:04.993Z,82.70
2022-08-11T00:54:51.666Z,82.70
2022-08-11T00:57:59.325Z,82.50
2022-08-11T01:00:32.182Z,82.10
2022-08-11T01:03:29.934Z,82.40
2022-08-11T01:06:14.750Z,82.50
2022-08-11T01:09:22.724Z,82.70
2022-08-11T01:12:26.601Z,83.10
2022-08-11T01:15:36.562Z,83.00
2022-08-11T01:18:55.636Z,83.20
2022-08-11T01:21:59.737Z,83.60
2022-08-11T01:25:03.336Z,84.20
2022-08-11T01:28:07.557Z,84.30
2022-08-11T01:31:12.118Z,84.50
2022-08-11T01:34:36.912Z,84.80
2022-08-11T01:37:47.976Z,85.20
2022-08-11T01:40:42.110Z,84.90
2022-08-11T01:44:12.417Z,85.50
2022-08-11T01:46:47.354Z,85.90
2022-08-11T01:50:06.766Z,85.80
2022-08-11T01:52:18.737Z,85.90
2022-08-11T01:55:00.786Z,86.00
2022-08-11T01:57:37.475Z,86.40
2022-08-11T02:00:09.721Z,86.90
2022-08-11T02:02:47.964Z,87.20
2022-08-11T02:05:36.930Z,87.50
2022-08-11T02:08:18.952Z,87.50
2022-08-11T02:11:15.936Z,87.70
2022-08-11T02:13:54.350Z,88.00
2022-08-11T02:16:36.657Z,88.00
2022-08-11T02:19:29.999Z,88.20
2022-08-11T02:22:21.861Z,88.30
2022-08-11T02:24:58.617Z,89.00
2022-08-11T02:27:37.167Z,89.50
2022-08-11T02:30:08.717Z,89.70
2022-08-11T02:33:05.020Z,89.80
2022-08-11T02:35:42.965Z,90.00
2022-08-11T02:38:17.761Z,90.10
2022-08-11T02:40:50.359Z,90.20
2022-08-11T02:43:30.413Z,90.30
2022-08-11T02:46:17.986Z,90.40
2022-08-11T02:49:18.640Z,91.00
2022-08-11T02:52:02.734Z,91.10
2022-08-11T02:54:36.104Z,91.10
2022-08-11T02:57:11.519Z,91.10
2022-08-11T02:59:53.245Z,91.40
2022-08-11T03:02:46.333Z,91.50
2022-08-11T03:05:18.642Z,91.80
2022-08-11T03:07:59.909Z,91.70
2022-08-11T03:10:34.908Z,91.70
2022-08-11T03:13:27.484Z,91.70
2022-08-11T03:16:31.482Z,91.80
2022-08-11T03:19:14.248Z,91.90
2022-08-11T03:22:02.949Z,92.10
2022-08-11T03:24:54.036Z,92.60
2022-08-11T03:27:39.686Z,92.80
2022-08-11T03:30:12.972Z,92.90
2022-08-11T03:33:17.342Z,93.10
2022-08-11T03:35:54.728Z,93.10
2022-08-11T03:38:30.701Z,93.10
2022-08-11T03:42:02.241Z,93.10
2022-08-11T03:44:32.817Z,93.30
2022-08-11T03:47:35.305Z,93.60
2022-08-11T03:50:13.585Z,93.70
2022-08-11T03:53:02.591Z,93.70
2022-08-11T03:55:48.050Z,93.70
2022-08-11T03:58:46.185Z,93.90
2022-08-11T04:01:48.369Z,93.90
2022-08-11T04:04:37.582Z,94.10
2022-08-11T04:07:45.331Z,94.20
2022-08-11T04:10:48.333Z,94.40
2022-08-11T04:13:50.027Z,94.40
2022-08-11T04:16:42.127Z,94.60
2022-08-11T04:19:41.710Z,94.80
2022-08-11T04:22:41.001Z,94.90
2022-08-11T04:25:23.317Z,95.10
2022-08-11T04:28:28.647Z,95.20
2022-08-11T04:31:10.960Z,95.30
2022-08-11T04:34:01.771Z,95.40
2022-08-11T04:37:00.553Z,95.40
2022-08-11T04:39:49.665Z,95.50
2022-08-11T04:43:21.293Z,95.50
2022-08-11T04:46:28.758Z,95.50
2022-08-11T04:49:25.507Z,95.80
2022-08-11T04:52:24.517Z,96.10
2022-08-11T04:55:45.510Z,96.30
2022-08-11T04:58:35.636Z,96.30
2022-08-11T05:01:41.244Z,95.80
2022-08-11T05:05:00.337Z,95.80
2022-08-11T05:08:07.411Z,95.60
2022-08-11T05:10:51.858Z,94.60
2022-08-11T05:13:47.258Z,92.90
2022-08-11T05:16:36.784Z,89.20
2022-08-11T05:19:23.715Z,82.10
2022-08-11T05:22:14.239Z,75.20
2022-08-11T05:25:03.173Z,69.10
2022-08-11T05:27:57.392Z,63.80
2022-08-11T05:30:47.161Z,60.30
2022-08-11T05:33:41.069Z,58.80
2022-08-11T05:36:15.456Z,56.90
2022-08-11T05:39:12.317Z,55.80
2022-08-11T05:42:00.019Z,55.40
2022-08-11T05:44:48.627Z,54.90
2022-08-11T05:47:42.707Z,53.80
2022-08-11T05:50:32.987Z,52.80
2022-08-11T05:53:20.531Z,51.20
2022-08-11T05:56:07.926Z,50.30
2022-08-11T05:58:42.029Z,50.00
2022-08-11T06:01:13.139Z,50.60
2022-08-11T06:04:03.302Z,51.50
2022-08-11T06:06:31.242Z,52.30
2022-08-11T06:08:59.592Z,53.80
2022-08-11T06:11:43.591Z,54.70
2022-08-11T06:14:13.354Z,55.10
2022-08-11T06:16:43.323Z,55.60
2022-08-11T06:19:11.268Z,54.20
2022-08-11T06:21:44.654Z,54.10
2022-08-11T06:24:13.727Z,52.80
2022-08-11T06:27:08.678Z,51.50
2022-08-11T06:29:37.865Z,50.00
2022-08-11T06:32:16.473Z,49.20
2022-08-11T06:34:59.667Z,48.10
2022-08-11T06:37:39.498Z,46.20
2022-08-11T06:40:11.747Z,47.10
2022-08-11T06:42:52.062Z,45.30
2022-08-11T06:45:32.619Z,44.40
2022-08-11T06:48:03.106Z,45.30
2022-08-11T06:50:50.279Z,44.60
2022-08-11T06:53:19.937Z,45.30
2022-08-11T06:56:08.428Z,43.20
2022-08-11T06:58:59.240Z,42.50
2022-08-11T07:01:46.350Z,43.10
2022-08-11T07:04:27.713Z,41.90
2022-08-11T07:07:52.792Z,42.70
2022-08-11T07:11:08.400Z,42.90
2022-08-11T07:13:56.744Z,42.60
2022-08-11T07:16:29.029Z,41.80
2022-08-11T07:19:18.629Z,41.70
2022-08-11T07:22:06.849Z,40.90
2022-08-11T07:24:59.719Z,41.30
2022-08-11T07:28:03.984Z,38.80
2022-08-11T07:30:34.436Z,38.30
2022-08-11T07:33:03.344Z,38.40
2022-08-11T07:35:35.255Z,37.20
2022-08-11T07:38:08.141Z,37.00
2022-08-11T07:40:36.826Z,37.90
2022-08-11T07:43:07.102Z,37.70
2022-08-11T07:45:54.129Z,37.40
2022-08-11T07:48:40.048Z,37.20
2022-08-11T07:51:26.337Z,37.20
2022-08-11T07:53:58.592Z,37.80
2022-08-11T07:57:07.321Z,37.90
2022-08-11T08:00:00.006Z,39.20
2022-08-11T08:02:58.519Z,36.70
2022-08-11T08:05:45.245Z,35.80
2022-08-11T08:08:33.926Z,37.50
2022-08-11T08:11:27.233Z,38.90
2022-08-11T08:14:14.060Z,36.90
2022-08-11T08:17:00.683Z,35.80
2022-08-11T08:19:28.346Z,35.80
2022-08-11T08:22:05.060Z,36.90
2022-08-11T08:24:44.003Z,37.60
2022-08-11T08:27:14.225Z,38.80
2022-08-11T08:30:02.794Z,39.90
2022-08-11T08:32:30.543Z,40.80
2022-08-11T08:34:59.261Z,40.80
2022-08-11T08:37:46.881Z,43.40
2022-08-11T08:40:14.962Z,43.00
2022-08-11T08:42:51.471Z,43.70
2022-08-11T08:45:19.048Z,44.50
2022-08-11T08:47:53.222Z,44.10
2022-08-11T08:50:27.488Z,44.60
2022-08-11T08:53:00.521Z,45.40
2022-08-11T08:55:30.567Z,46.20
2022-08-11T08:58:00.814Z,45.80
2022-08-11T09:00:40.026Z,45.70
2022-08-11T09:03:29.499Z,45.60
2022-08-11T09:05:56.039Z,45.40
2022-08-11T09:08:24.865Z,44.60
2022-08-11T09:11:14.086Z,44.40
2022-08-11T09:13:45.476Z,45.40
2022-08-11T09:16:13.561Z,43.80
2022-08-11T09:18:44.535Z,42.40
2022-08-11T09:21:14.724Z,42.50
2022-08-11T09:24:26.078Z,42.70
2022-08-11T09:26:59.864Z,43.00
2022-08-11T09:29:30.188Z,42.00
2022-08-11T09:31:58.600Z,40.30
2022-08-11T09:34:26.489Z,41.10
2022-08-11T09:37:13.208Z,40.90
2022-08-11T09:40:01.039Z,39.10
2022-08-11T09:42:48.673Z,37.90
2022-08-11T09:45:17.902Z,37.80
2022-08-11T09:47:46.037Z,38.50
2022-08-11T09:50:16.121Z,37.90
2022-08-11T09:53:03.870Z,38.50
2022-08-11T09:55:34.047Z,38.60
2022-08-11T09:58:42.597Z,36.70
2022-08-11T10:01:03.722Z,36.40
2022-08-11T10:03:37.129Z,37.00
2022-08-11T10:06:43.537Z,37.90
2022-08-11T10:09:11.794Z,37.90
2022-08-11T10:11:40.929Z,37.20
2022-08-11T10:14:33.729Z,37.80
2022-08-11T10:17:06.970Z,39.60
2022-08-11T10:19:36.585Z,36.90
2022-08-11T10:22:24.311Z,36.90
2022-08-11T10:25:14.597Z,38.20
2022-08-11T10:28:28.712Z,38.40
2022-08-11T10:30:56.717Z,37.10
2022-08-11T10:33:53.367Z,37.00
2022-08-11T10:36:28.315Z,36.80
2022-08-11T10:38:56.492Z,37.20
2022-08-11T10:42:06.930Z,37.30
2022-08-11T10:44:35.792Z,36.80
2022-08-11T10:47:22.807Z,38.20
2022-08-11T10:50:12.355Z,36.90
2022-08-11T10:52:59.183Z,37.50
2022-08-11T10:55:45.795Z,35.10
2022-08-11T10:58:33.296Z,35.70
2022-08-11T11:01:01.973Z,36.20
2022-08-11T11:03:31.259Z,36.30
2022-08-11T11:06:27.262Z,36.30
2022-08-11T11:09:03.718Z,36.90
2022-08-11T11:11:54.679Z,36.60
2022-08-11T11:14:49.177Z,36.60
2022-08-11T11:17:43.661Z,37.40
2022-08-11T11:20:34.515Z,37.20
2022-08-11T11:23:07.774Z,36.40
2022-08-11T11:26:10.303Z,36.60
2022-08-11T11:29:03.068Z,37.90
2022-08-11T11:31:44.977Z,37.50
2022-08-11T11:34:49.852Z,37.60
2022-08-11T11:37:22.780Z,37.50
2022-08-11T11:39:52.212Z,35.50
2022-08-11T11:42:20.561Z,36.10
2022-08-11T11:44:48.562Z,35.70
2022-08-11T11:47:21.692Z,35.00
2022-08-11T11:49:50.233Z,35.60
2022-08-11T11:52:20.179Z,35.50
2022-08-11T11:54:50.344Z,35.10
2022-08-11T11:57:39.491Z,36.60
2022-08-11T12:00:33.064Z,37.00
2022-08-11T12:03:05.272Z,35.80
2022-08-11T12:05:34.709Z,35.80
2022-08-11T12:08:22.388Z,35.00
2022-08-11T12:11:12.975Z,35.00
2022-08-11T12:13:44.901Z,35.70
2022-08-11T12:16:33.793Z,36.10
2022-08-11T12:19:03.468Z,35.30
2022-08-11T12:21:31.329Z,33.40
2022-08-11T12:24:20.473Z,34.50
2022-08-11T12:27:01.396Z,35.30
2022-08-11T12:29:41.117Z,35.80
2022-08-11T12:32:11.795Z,35.70
2022-08-11T12:34:39.192Z,36.20
2022-08-11T12:37:12.903Z,34.40
2022-08-11T12:40:10.690Z,36.60
2022-08-11T12:43:06.096Z,35.40
2022-08-11T12:45:54.038Z,37.50
2022-08-11T12:48:59.736Z,36.90
2022-08-11T12:52:12.925Z,37.10
2022-08-11T12:54:50.409Z,35.60
2022-08-11T12:57:39.478Z,35.90
2022-08-11T13:00:27.239Z,36.00
2022-08-11T13:03:15.386Z,35.30
2022-08-11T13:05:44.594Z,35.10
2022-08-11T13:08:16.403Z,37.30
2022-08-11T13:11:03.615Z,36.10
2022-08-11T13:13:55.554Z,36.80
2022-08-11T13:16:20.673Z,36.90
2022-08-11T13:18:50.807Z,35.80
2022-08-11T13:21:21.206Z,35.40
2022-08-11T13:24:00.408Z,35.50
2022-08-11T13:26:43.319Z,35.20
2022-08-11T13:29:18.259Z,35.00
2022-08-11T13:31:49.067Z,35.60
2022-08-11T13:34:20.015Z,34.90
2022-08-11T13:36:49.536Z,34.10
2022-08-11T13:39:16.992Z,34.50
2022-08-11T13:41:47.694Z,35.80
2022-08-11T13:44:23.155Z,35.00
2022-08-11T13:46:53.257Z,35.60
2022-08-11T13:49:22.679Z,35.70
2022-08-11T13:51:50.425Z,37.00
2022-08-11T13:54:20.095Z,35.50
2022-08-11T13:56:50.122Z,36.40
2022-08-11T13:59:29.904Z,34.90
2022-08-11T14:02:22.865Z,36.80
2022-08-11T14:04:56.153Z,35.80
2022-08-11T14:07:27.610Z,35.80
2022-08-11T14:09:58.327Z,36.10
2022-08-11T14:12:46.591Z,35.90
2022-08-11T14:15:19.768Z,35.90
2022-08-11T14:17:52.175Z,36.40
2022-08-11T14:20:38.110Z,35.50
2022-08-11T14:23:10.939Z,37.20
2022-08-11T14:26:02.454Z,36.80
2022-08-11T14:28:42.007Z,35.20
2022-08-11T14:31:12.163Z,35.10
2022-08-11T14:33:59.916Z,34.60
2022-08-11T14:36:32.856Z,35.00
2022-08-11T14:39:03.338Z,34.90
2022-08-11T14:42:10.575Z,35.30
2022-08-11T14:44:56.616Z,35.40
2022-08-11T14:47:25.753Z,36.20
2022-08-11T14:50:05.017Z,36.30
2022-08-11T14:52:45.724Z,36.60
2022-08-11T14:55:32.338Z,37.20
2022-08-11T14:58:02.003Z,38.20
2022-08-11T15:00:29.798Z,36.30
2022-08-11T15:03:13.534Z,36.70
2022-08-11T15:05:56.939Z,36.20
2022-08-11T15:08:48.295Z,36.30
2022-08-11T15:11:36.345Z,37.00
2022-08-11T15:14:06.204Z,36.10
2022-08-11T15:16:56.137Z,36.30
2022-08-11T15:19:25.914Z,37.50
2022-08-11T15:22:11.728Z,36.60
2022-08-11T15:24:40.520Z,37.10
2022-08-11T15:27:31.422Z,37.50
2022-08-11T15:30:32.236Z,37.60
2022-08-11T15:33:23.600Z,37.10
2022-08-11T15:36:11.126Z,36.90
2022-08-11T15:38:44.487Z,36.70
2022-08-11T15:41:35.949Z,37.00
2022-08-11T15:44:51.234Z,36.60
2022-08-11T15:47:17.882Z,36.90
2022-08-11T15:50:10.398Z,36.70
2022-08-11T15:52:41.196Z,37.20
2022-08-11T15:55:09.169Z,36.80
2022-08-11T15:57:57.896Z,36.50
2022-08-11T16:00:44.461Z,37.20
2022-08-11T16:04:06.448Z,36.60
2022-08-11T16:06:23.915Z,35.60
2022-08-11T16:08:54.083Z,36.70
2022-08-11T16:11:22.749Z,37.90
2022-08-11T16:14:10.822Z,37.40
2022-08-11T16:16:39.282Z,39.20
2022-08-11T16:19:10.809Z,38.00
2022-08-11T16:21:43.596Z,38.10
2022-08-11T16:27:03.234Z,38.40
2022-08-11T16:27:11.153Z,37.60
2022-08-11T16:29:45.004Z,38.90
2022-08-11T16:32:17.828Z,37.70
2022-08-11T16:35:06.406Z,38.40
2022-08-11T16:37:53.951Z,39.70
2022-08-11T16:40:22.974Z,37.70
2022-08-11T16:43:11.661Z,37.30
2022-08-11T16:46:01.378Z,37.10
2022-08-11T16:48:37.146Z,37.90
2022-08-11T16:51:06.215Z,38.60
2022-08-11T16:53:46.052Z,38.00
2022-08-11T16:56:25.094Z,37.80
2022-08-11T16:59:14.765Z,37.10
2022-08-11T17:01:49.745Z,36.60
2022-08-11T17:04:58.324Z,37.50
2022-08-11T17:07:46.257Z,37.70
2022-08-11T17:10:52.324Z,38.50
2022-08-11T17:13:29.203Z,38.80
2022-08-11T17:16:07.532Z,39.30
2022-08-11T17:18:50.111Z,38.80
2022-08-11T17:21:21.612Z,39.00
2022-08-11T17:23:55.000Z,39.40
2022-08-11T17:26:27.931Z,40.00
2022-08-11T17:28:59.497Z,39.70
2022-08-11T17:31:47.228Z,40.10
2022-08-11T17:34:38.180Z,40.50
2022-08-11T17:37:05.452Z,40.90
2022-08-11T17:39:33.758Z,41.70
2022-08-11T17:42:20.538Z,40.70
2022-08-11T17:45:08.012Z,40.90
2022-08-11T17:47:54.089Z,40.80
2022-08-11T17:50:23.546Z,41.90
2022-08-11T17:53:11.101Z,41.80
2022-08-11T17:55:58.902Z,42.30
2022-08-11T17:58:46.178Z,43.00
2022-08-11T18:01:14.579Z,43.20
2022-08-11T18:03:57.754Z,42.90
2022-08-11T18:06:34.043Z,42.70
2022-08-11T18:09:24.051Z,43.10
2022-08-11T18:12:13.171Z,43.70
2022-08-11T18:15:02.594Z,43.30
2022-08-11T18:17:48.583Z,44.30
2022-08-11T18:20:34.587Z,44.00
2022-08-11T18:23:46.258Z,45.10
2022-08-11T18:26:32.325Z,44.80
2022-08-11T18:29:19.458Z,44.50
2022-08-11T18:32:08.649Z,44.80
2022-08-11T18:35:00.313Z,44.70
2022-08-11T18:37:49.691Z,44.40
2022-08-11T18:40:39.352Z,44.70
2022-08-11T18:43:30.261Z,45.10
2022-08-11T18:46:20.164Z,44.90
2022-08-11T18:49:15.001Z,45.60
2022-08-11T18:52:06.679Z,45.30
2022-08-11T18:54:55.221Z,45.80
2022-08-11T18:57:49.433Z,46.50
2022-08-11T19:00:44.618Z,46.50
2022-08-11T19:03:43.262Z,46.50
2022-08-11T19:06:43.540Z,46.10
2022-08-11T19:09:36.133Z,46.80
2022-08-11T19:12:24.661Z,47.60
2022-08-11T19:15:13.194Z,46.70
2022-08-11T19:18:02.233Z,47.30
2022-08-11T19:20:51.349Z,48.70
2022-08-11T19:23:44.225Z,49.40
2022-08-11T19:26:30.671Z,49.30
2022-08-11T19:30:04.883Z,49.40
2022-08-11T19:32:26.290Z,49.70
2022-08-11T19:35:12.819Z,51.80
2022-08-11T19:37:59.127Z,50.70
2022-08-11T19:40:45.602Z,52.60
2022-08-11T19:43:31.997Z,51.30
2022-08-11T19:46:20.301Z,51.70
2022-08-11T19:49:11.291Z,52.90
2022-08-11T19:51:58.796Z,54.00
2022-08-11T19:54:46.532Z,54.60
2022-08-11T19:57:38.778Z,55.50
2022-08-11T20:00:29.942Z,57.00
2022-08-11T20:03:18.106Z,58.00
2022-08-11T20:06:07.089Z,58.80
2022-08-11T20:08:58.938Z,59.80
2022-08-11T20:11:48.677Z,60.80
2022-08-11T20:14:35.403Z,59.90
2022-08-11T20:17:22.109Z,61.60
2022-08-11T20:20:08.648Z,62.40
2022-08-11T20:22:56.588Z,63.50
2022-08-11T20:25:43.740Z,63.00
2022-08-11T20:28:33.187Z,62.10
2022-08-11T20:31:19.555Z,61.70
2022-08-11T20:34:06.522Z,61.10
2022-08-11T20:36:59.376Z,62.90
2022-08-11T20:39:49.168Z,64.50
2022-08-11T20:42:35.717Z,64.60
2022-08-11T20:45:24.022Z,64.40
2022-08-11T20:48:14.676Z,63.90
2022-08-11T20:51:06.300Z,63.90
2022-08-11T20:53:53.317Z,62.30
2022-08-11T20:56:41.941Z,63.40
2022-08-11T20:59:29.892Z,63.00
2022-08-11T21:02:19.770Z,65.70
2022-08-11T21:05:05.826Z,66.00
2022-08-11T21:11:00.778Z,64.10
2022-08-11T21:13:52.922Z,64.80
2022-08-11T21:16:47.465Z,65.50
2022-08-11T21:19:59.983Z,65.20
2022-08-11T21:22:59.110Z,65.50
2022-08-11T21:25:53.322Z,66.50
2022-08-11T21:28:40.821Z,65.80
2022-08-11T21:31:29.097Z,64.90
2022-08-11T21:34:15.554Z,65.60
2022-08-11T21:37:03.553Z,64.50
2022-08-11T21:39:49.253Z,65.00
2022-08-11T21:42:39.908Z,64.60
2022-08-11T21:45:27.670Z,66.20
2022-08-11T21:48:16.255Z,66.40
2022-08-11T21:51:01.928Z,65.50
2022-08-11T21:53:48.359Z,65.10
2022-08-11T21:56:34.457Z,64.80
2022-08-11T21:59:20.749Z,63.70
2022-08-11T22:02:12.344Z,64.50
2022-08-11T22:05:00.481Z,64.50
2022-08-11T22:07:47.530Z,63.00
2022-08-11T22:10:42.023Z,64.40
2022-08-11T22:13:29.358Z,64.40
2022-08-11T22:16:15.080Z,66.20
2022-08-11T22:19:01.288Z,66.00
2022-08-11T22:22:01.634Z,66.60
2022-08-11T22:24:50.789Z,65.70
2022-08-11T22:27:36.482Z,65.90
2022-08-11T22:30:22.717Z,66.60
2022-08-11T22:33:08.648Z,66.10
2022-08-11T22:35:54.308Z,66.70
2022-08-11T22:38:41.811Z,66.20
2022-08-11T22:41:27.380Z,66.10
2022-08-11T22:44:13.017Z,65.70
2022-08-11T22:47:00.347Z,65.70
2022-08-11T22:49:57.079Z,67.00
2022-08-11T22:52:44.317Z,67.90
2022-08-11T22:55:31.795Z,67.80
2022-08-11T22:58:18.412Z,68.20
2022-08-11T23:01:04.595Z,67.90
2022-08-11T23:03:51.921Z,67.70
2022-08-11T23:06:38.407Z,68.20
2022-08-11T23:09:24.047Z,68.80
2022-08-11T23:12:12.573Z,68.30
2022-08-11T23:15:00.012Z,68.30
2022-08-11T23:17:46.476Z,68.50
2022-08-11T23:20:44.519Z,68.80
2022-08-11T23:23:40.257Z,69.00
2022-08-11T23:26:26.955Z,69.60
2022-08-11T23:29:18.241Z,68.90
2022-08-11T23:32:05.831Z,68.70
2022-08-11T23:35:04.343Z,69.40
2022-08-11T23:38:00.487Z,68.50
2022-08-11T23:40:46.029Z,69.50
2022-08-11T23:43:37.103Z,69.50
2022-08-11T23:46:24.358Z,69.70
2022-08-11T23:49:11.709Z,69.50
2022-08-11T23:51:58.495Z,69.30
2022-08-11T23:54:45.460Z,69.10
2022-08-11T23:57:31.301Z,69.00
